createdAt,value
2019-05-06T00:00:07.588Z,1.90
2019-05-06T00:02:10.824Z,2.20
2019-05-06T00:04:14.180Z,2.33
2019-05-06T00:06:17.411Z,2.08
2019-05-06T00:08:20.682Z,2.02
2019-05-06T00:10:27.230Z,2.40
2019-05-06T00:12:30.485Z,2.35
2019-05-06T00:14:34.030Z,2.17
2019-05-06T00:16:37.404Z,3.15
2019-05-06T00:18:40.734Z,2.50
2019-05-06T00:20:44.000Z,2.60
2019-05-06T00:22:47.315Z,2.55
2019-05-06T00:24:55.266Z,2.42
2019-05-06T00:27:16.796Z,2.27
2019-05-06T00:29:24.072Z,2.20
2019-05-06T00:31:26.667Z,2.37
2019-05-06T00:33:29.916Z,2.83
2019-05-06T00:35:34.239Z,2.20
2019-05-06T00:37:37.641Z,1.90
2019-05-06T00:39:44.419Z,2.60
2019-05-06T00:41:49.176Z,2.20
2019-05-06T00:43:54.436Z,2.35
2019-05-06T00:45:57.392Z,2.52
2019-05-06T00:48:00.630Z,1.98
2019-05-06T00:50:05.321Z,2.22
2019-05-06T00:52:08.834Z,2.22
2019-05-06T00:54:14.299Z,2.45
2019-05-06T00:56:17.770Z,2.40
2019-05-06T00:58:21.012Z,2.35
2019-05-06T01:00:26.054Z,2.50
2019-05-06T01:02:29.284Z,2.37
2019-05-06T01:04:33.864Z,3.10
2019-05-06T01:06:37.368Z,2.65
2019-05-06T01:08:40.612Z,3.08
2019-05-06T01:10:44.936Z,2.72
2019-05-06T01:13:08.067Z,3.17
2019-05-06T01:15:14.254Z,2.65
2019-05-06T01:17:17.626Z,2.80
2019-05-06T01:19:20.885Z,2.67
2019-05-06T01:21:24.154Z,2.80
2019-05-06T01:23:27.414Z,2.58
2019-05-06T01:25:30.727Z,2.35
2019-05-06T01:27:34.226Z,2.42
2019-05-06T01:29:37.458Z,2.80
2019-05-06T01:31:43.785Z,2.80
2019-05-06T01:33:45.742Z,2.87
2019-05-06T01:35:49.014Z,3.10
2019-05-06T01:37:54.548Z,2.80
2019-05-06T01:40:04.076Z,3.02
2019-05-06T01:42:09.221Z,2.85
2019-05-06T01:44:13.683Z,2.85
2019-05-06T01:46:17.061Z,3.05
2019-05-06T01:48:21.943Z,3.20
2019-05-06T01:50:25.202Z,2.72
2019-05-06T01:52:28.462Z,3.50
2019-05-06T01:54:31.701Z,2.92
2019-05-06T01:56:34.957Z,3.55
2019-05-06T01:58:38.202Z,2.98
2019-05-06T02:00:43.600Z,2.90
2019-05-06T02:02:46.424Z,3.22
2019-05-06T02:04:49.678Z,2.77
2019-05-06T02:06:54.536Z,2.65
2019-05-06T02:08:58.058Z,2.83
2019-05-06T02:11:01.297Z,2.62
2019-05-06T02:13:04.569Z,3.02
2019-05-06T02:15:07.835Z,2.75
2019-05-06T02:17:11.105Z,2.95
2019-05-06T02:19:14.860Z,3.10
2019-05-06T02:21:19.810Z,3.25
2019-05-06T02:23:27.745Z,2.95
2019-05-06T02:25:34.190Z,2.98
2019-05-06T02:27:37.673Z,3.37
2019-05-06T02:29:44.976Z,3.15
2019-05-06T02:32:15.466Z,3.02
2019-05-06T02:34:05.386Z,2.87
2019-05-06T02:36:26.562Z,3.08
2019-05-06T02:38:39.098Z,3.02
2019-05-06T02:40:36.438Z,3.00
2019-05-06T02:42:42.945Z,2.67
2019-05-06T02:44:44.671Z,2.70
2019-05-06T02:46:49.568Z,2.62
2019-05-06T02:49:13.235Z,2.92
2019-05-06T02:51:17.532Z,3.05
2019-05-06T02:53:23.574Z,2.77
2019-05-06T02:55:27.072Z,3.08
2019-05-06T02:57:33.256Z,3.00
2019-05-06T02:59:35.315Z,2.80
2019-05-06T03:01:38.654Z,2.30
2019-05-06T03:03:43.569Z,2.70
2019-05-06T03:05:46.969Z,2.95
2019-05-06T03:07:50.229Z,2.67
2019-05-06T03:09:53.522Z,2.92
2019-05-06T03:11:56.810Z,2.83
2019-05-06T03:14:03.018Z,2.80
2019-05-06T03:16:05.906Z,2.92
2019-05-06T03:18:09.535Z,2.67
2019-05-06T03:20:17.811Z,3.35
2019-05-06T03:22:24.090Z,2.55
2019-05-06T03:24:29.315Z,2.37
2019-05-06T03:26:33.898Z,2.50
2019-05-06T03:28:37.137Z,2.50
2019-05-06T03:30:45.216Z,2.80
2019-05-06T03:33:21.213Z,2.40
2019-05-06T03:35:13.799Z,2.70
2019-05-06T03:36:56.430Z,2.87
2019-05-06T03:39:02.965Z,2.80
2019-05-06T03:41:05.293Z,3.25
2019-05-06T03:43:08.554Z,2.80
2019-05-06T03:45:16.209Z,2.33
2019-05-06T03:47:23.475Z,2.85
2019-05-06T03:49:27.796Z,2.85
2019-05-06T03:51:33.497Z,2.45
2019-05-06T03:53:36.142Z,2.80
2019-05-06T03:55:39.479Z,2.42
2019-05-06T03:57:43.014Z,2.20
2019-05-06T03:59:46.519Z,2.65
2019-05-06T04:01:49.829Z,2.70
2019-05-06T04:03:56.965Z,2.40
2019-05-06T04:05:58.101Z,2.58
2019-05-06T04:08:03.885Z,2.58
2019-05-06T04:10:07.187Z,2.30
2019-05-06T04:12:12.771Z,2.47
2019-05-06T04:14:15.787Z,2.45
2019-05-06T04:16:33.747Z,2.85
2019-05-06T04:18:48.434Z,2.67
2019-05-06T04:20:53.411Z,2.75
2019-05-06T04:23:06.013Z,2.95
2019-05-06T04:25:07.905Z,2.70
2019-05-06T04:27:28.088Z,2.45
2019-05-06T04:29:35.228Z,2.42
2019-05-06T04:31:36.971Z,3.12
2019-05-06T04:33:40.232Z,2.92
2019-05-06T04:35:43.599Z,2.47
2019-05-06T04:37:46.842Z,2.60
2019-05-06T04:39:52.988Z,3.00
2019-05-06T04:41:55.170Z,2.70
2019-05-06T04:43:58.481Z,2.42
2019-05-06T04:46:03.202Z,2.55
2019-05-06T04:48:06.687Z,3.42
2019-05-06T04:50:12.922Z,2.95
2019-05-06T04:52:14.923Z,2.47
2019-05-06T04:54:18.172Z,2.85
2019-05-06T04:56:23.719Z,3.25
2019-05-06T04:58:26.421Z,3.08
2019-05-06T05:00:29.675Z,3.30
2019-05-06T05:02:33.698Z,3.52
2019-05-06T05:04:37.272Z,2.87
2019-05-06T05:06:43.075Z,3.50
2019-05-06T05:08:45.815Z,3.15
2019-05-06T05:10:53.434Z,3.45
2019-05-06T05:12:58.329Z,3.27
2019-05-06T05:15:12.189Z,3.27
2019-05-06T05:17:29.468Z,3.40
2019-05-06T05:19:33.028Z,2.98
2019-05-06T05:21:36.296Z,3.30
2019-05-06T05:23:39.705Z,3.83
2019-05-06T05:25:42.957Z,3.58
2019-05-06T05:27:46.234Z,3.33
2019-05-06T05:29:49.588Z,3.12
2019-05-06T05:31:53.071Z,3.70
2019-05-06T05:33:56.387Z,3.30
2019-05-06T05:35:59.658Z,3.25
2019-05-06T05:38:03.095Z,3.10
2019-05-06T05:40:06.629Z,3.20
2019-05-06T05:42:23.814Z,3.62
2019-05-06T05:44:29.021Z,3.12
2019-05-06T05:46:33.049Z,3.33
2019-05-06T05:48:54.334Z,3.37
2019-05-06T05:50:57.591Z,3.30
2019-05-06T05:53:02.443Z,3.47
2019-05-06T05:55:05.903Z,3.17
2019-05-06T05:57:09.257Z,3.40
2019-05-06T05:59:12.516Z,3.72
2019-05-06T06:01:15.766Z,2.95
2019-05-06T06:03:19.016Z,2.85
2019-05-06T06:05:22.277Z,3.15
2019-05-06T06:07:25.597Z,3.27
2019-05-06T06:09:32.752Z,3.52
2019-05-06T06:11:42.097Z,3.20
2019-05-06T06:13:45.536Z,3.20
2019-05-06T06:15:56.392Z,3.12
2019-05-06T06:18:04.025Z,3.98
2019-05-06T06:20:25.185Z,3.12
2019-05-06T06:22:30.145Z,2.87
2019-05-06T06:24:34.986Z,3.65
2019-05-06T06:26:38.225Z,3.10
2019-05-06T06:28:42.526Z,2.98
2019-05-06T06:30:56.346Z,3.00
2019-05-06T06:32:59.599Z,3.08
2019-05-06T06:35:12.037Z,3.20
2019-05-06T06:37:19.491Z,2.92
2019-05-06T06:39:33.102Z,2.70
2019-05-06T06:41:36.400Z,2.92
2019-05-06T06:43:42.025Z,2.70
2019-05-06T06:45:44.644Z,3.50
2019-05-06T06:47:48.067Z,3.22
2019-05-06T06:49:53.317Z,3.92
2019-05-06T06:51:56.289Z,2.83
2019-05-06T06:53:59.550Z,3.37
2019-05-06T06:56:22.036Z,3.37
2019-05-06T06:58:32.174Z,3.07
2019-05-06T07:00:45.819Z,3.17
2019-05-06T07:03:06.992Z,3.27
2019-05-06T07:05:28.703Z,3.02
2019-05-06T07:07:43.669Z,3.00
2019-05-06T07:09:38.485Z,3.90
2019-05-06T07:11:42.809Z,2.98
2019-05-06T07:13:49.517Z,2.95
2019-05-06T07:15:52.773Z,3.77
2019-05-06T07:17:56.070Z,3.55
2019-05-06T07:20:19.054Z,3.35
2019-05-06T07:22:23.975Z,3.50
2019-05-06T07:24:27.211Z,3.35
2019-05-06T07:26:35.014Z,3.30
2019-05-06T07:28:38.270Z,3.00
2019-05-06T07:30:42.026Z,3.27
2019-05-06T07:32:45.357Z,2.85
2019-05-06T07:34:48.673Z,3.40
2019-05-06T07:36:52.641Z,3.80
2019-05-06T07:38:56.021Z,3.40
2019-05-06T07:41:09.892Z,3.25
2019-05-06T07:43:30.754Z,3.33
2019-05-06T07:45:38.081Z,3.05
2019-05-06T07:48:00.759Z,4.62
2019-05-06T07:50:05.645Z,2.90
2019-05-06T07:52:08.927Z,3.35
2019-05-06T07:54:12.381Z,2.85
2019-05-06T07:56:15.739Z,2.92
2019-05-06T07:58:18.998Z,2.77
2019-05-06T08:00:23.004Z,2.83
2019-05-06T08:02:26.398Z,2.50
2019-05-06T08:04:29.662Z,3.00
2019-05-06T08:06:32.946Z,3.10
2019-05-06T08:08:36.662Z,3.02
2019-05-06T08:10:42.239Z,3.65
2019-05-06T08:12:44.997Z,3.83
2019-05-06T08:14:48.217Z,3.17
2019-05-06T08:17:02.333Z,3.62
2019-05-06T08:19:05.818Z,4.12
2019-05-06T08:21:13.667Z,3.47
2019-05-06T08:23:24.611Z,2.92
2019-05-06T08:25:29.481Z,2.83
2019-05-06T08:27:33.045Z,2.83
2019-05-06T08:29:36.404Z,3.00
2019-05-06T08:31:39.752Z,2.95
2019-05-06T08:33:43.325Z,3.05
2019-05-06T08:35:46.738Z,2.80
2019-05-06T08:37:50.258Z,3.27
2019-05-06T08:39:53.639Z,3.30
2019-05-06T08:41:56.888Z,3.25
2019-05-06T08:44:02.408Z,3.40
2019-05-06T08:46:05.118Z,3.27
2019-05-06T08:48:08.394Z,3.20
2019-05-06T08:50:13.548Z,3.77
2019-05-06T08:52:18.438Z,3.37
2019-05-06T08:54:23.370Z,3.25
2019-05-06T08:56:26.636Z,3.00
2019-05-06T08:58:45.575Z,3.50
2019-05-06T09:01:05.774Z,2.65
2019-05-06T09:03:09.048Z,3.58
2019-05-06T09:05:12.291Z,2.83
2019-05-06T09:07:15.530Z,3.35
2019-05-06T09:09:18.776Z,2.83
2019-05-06T09:11:25.629Z,2.77
2019-05-06T09:13:27.019Z,3.47
2019-05-06T09:15:32.544Z,3.85
2019-05-06T09:17:35.330Z,2.90
2019-05-06T09:19:38.608Z,2.55
2019-05-06T09:21:45.661Z,1.95
2019-05-06T09:23:46.917Z,1.90
2019-05-06T09:25:50.181Z,2.83
2019-05-06T09:28:02.583Z,2.35
2019-05-06T09:30:07.851Z,2.10
2019-05-06T09:32:15.352Z,2.45
2019-05-06T09:34:23.471Z,1.98
2019-05-06T09:36:39.974Z,2.02
2019-05-06T09:38:32.193Z,2.17
2019-05-06T09:40:35.525Z,2.35
2019-05-06T09:42:38.815Z,2.80
2019-05-06T09:44:43.541Z,2.22
2019-05-06T09:46:46.836Z,2.87
2019-05-06T09:49:12.642Z,2.80
2019-05-06T09:51:15.139Z,2.62
2019-05-06T09:53:20.036Z,2.42
2019-05-06T09:55:34.106Z,2.58
2019-05-06T09:57:55.477Z,2.40
2019-05-06T09:59:58.771Z,2.90
2019-05-06T10:02:02.086Z,2.72
2019-05-06T10:04:08.339Z,2.92
2019-05-06T10:06:13.130Z,2.40
2019-05-06T10:08:16.632Z,2.20
2019-05-06T10:10:19.901Z,2.50
2019-05-06T10:12:23.173Z,2.15
2019-05-06T10:14:26.408Z,2.00
2019-05-06T10:16:29.696Z,2.27
2019-05-06T10:18:32.946Z,2.37
2019-05-06T10:20:42.607Z,2.30
2019-05-06T10:22:45.970Z,2.08
2019-05-06T10:24:49.243Z,2.30
2019-05-06T10:26:54.154Z,2.27
2019-05-06T10:29:08.268Z,2.75
2019-05-06T10:31:13.170Z,2.85
2019-05-06T10:33:20.813Z,2.30
2019-05-06T10:35:26.813Z,1.82
2019-05-06T10:37:42.232Z,2.10
2019-05-06T10:39:48.977Z,2.30
2019-05-06T10:41:53.889Z,2.40
2019-05-06T10:44:15.607Z,2.30
2019-05-06T10:46:18.879Z,2.37
2019-05-06T10:48:22.618Z,2.50
2019-05-06T10:50:27.913Z,1.87
2019-05-06T10:52:33.329Z,2.00
2019-05-06T10:54:36.752Z,1.72
2019-05-06T10:56:52.366Z,2.58
2019-05-06T10:58:46.684Z,2.00
2019-05-06T11:00:52.913Z,2.15
2019-05-06T11:03:14.382Z,1.60
2019-05-06T11:05:15.022Z,1.90
2019-05-06T11:07:31.058Z,1.65
2019-05-06T11:09:23.238Z,1.98
2019-05-06T11:11:37.012Z,1.72
2019-05-06T11:13:32.264Z,1.80
2019-05-06T11:15:35.754Z,1.80
2019-05-06T11:17:39.005Z,1.80
2019-05-06T11:19:42.790Z,1.70
2019-05-06T11:21:46.164Z,1.90
2019-05-06T11:23:49.415Z,1.87
2019-05-06T11:25:52.862Z,1.72
2019-05-06T11:27:56.166Z,1.85
2019-05-06T11:30:02.286Z,2.00
2019-05-06T11:32:07.429Z,2.10
2019-05-06T11:34:14.924Z,1.70
2019-05-06T11:36:32.333Z,2.12
2019-05-06T11:38:35.686Z,2.10
2019-05-06T11:40:38.960Z,1.95
2019-05-06T11:42:43.700Z,2.30
2019-05-06T11:44:47.198Z,2.10
2019-05-06T11:46:52.331Z,2.15
2019-05-06T11:48:55.593Z,1.80
2019-05-06T11:51:00.508Z,1.98
2019-05-06T11:53:03.760Z,1.90
2019-05-06T11:55:07.448Z,2.08
2019-05-06T11:57:12.409Z,2.22
2019-05-06T11:59:17.782Z,1.60
2019-05-06T12:01:28.825Z,2.27
2019-05-06T12:03:32.689Z,2.22
2019-05-06T12:05:36.374Z,2.58
2019-05-06T12:07:39.625Z,2.60
2019-05-06T12:09:42.987Z,2.30
2019-05-06T12:11:46.271Z,2.58
2019-05-06T12:13:49.621Z,2.00
2019-05-06T12:15:52.927Z,3.10
2019-05-06T12:17:56.268Z,3.12
2019-05-06T12:19:59.529Z,2.75
2019-05-06T12:22:02.783Z,2.65
2019-05-06T12:24:06.082Z,2.12
2019-05-06T12:26:09.322Z,2.30
2019-05-06T12:28:12.594Z,2.83
2019-05-06T12:30:23.099Z,2.72
2019-05-06T12:32:28.003Z,2.35
2019-05-06T12:34:32.433Z,2.60
2019-05-06T12:36:35.844Z,2.40
2019-05-06T12:38:43.156Z,2.92
2019-05-06T12:40:45.794Z,2.37
2019-05-06T12:42:53.849Z,2.50
2019-05-06T12:44:58.889Z,2.70
2019-05-06T12:47:06.723Z,1.98
2019-05-06T12:49:12.567Z,2.85
2019-05-06T12:51:14.971Z,2.70
2019-05-06T12:53:18.221Z,2.65
2019-05-06T12:55:25.096Z,2.33
2019-05-06T12:57:26.991Z,2.20
2019-05-06T12:59:30.259Z,2.17
2019-05-06T13:01:34.269Z,2.80
2019-05-06T13:03:37.742Z,3.05
2019-05-06T13:05:42.798Z,2.52
2019-05-06T13:08:06.678Z,2.47
2019-05-06T13:10:10.200Z,2.30
2019-05-06T13:12:15.077Z,2.90
2019-05-06T13:14:18.350Z,2.37
2019-05-06T13:16:22.879Z,2.75
2019-05-06T13:18:26.380Z,2.70
2019-05-06T13:20:34.701Z,4.15
2019-05-06T13:22:53.358Z,3.70
2019-05-06T13:24:57.030Z,3.30
2019-05-06T13:27:02.278Z,2.60
2019-05-06T13:29:10.111Z,2.70
2019-05-06T13:31:20.508Z,2.50
2019-05-06T13:33:28.800Z,2.72
2019-05-06T13:35:32.822Z,2.37
2019-05-06T13:37:36.099Z,2.42
2019-05-06T13:39:39.405Z,2.52
2019-05-06T13:41:42.741Z,2.50
2019-05-06T13:43:50.711Z,2.65
2019-05-06T13:46:07.647Z,2.15
2019-05-06T13:48:13.301Z,2.52
2019-05-06T13:50:18.316Z,2.60
2019-05-06T13:52:23.164Z,2.75
2019-05-06T13:54:26.492Z,2.75
2019-05-06T13:56:29.967Z,3.17
2019-05-06T13:58:33.241Z,2.80
2019-05-06T14:00:37.057Z,2.83
2019-05-06T14:02:44.702Z,2.50
2019-05-06T14:04:48.023Z,2.77
2019-05-06T14:06:52.766Z,3.10
2019-05-06T14:08:56.232Z,2.80
2019-05-06T14:11:00.143Z,2.67
2019-05-06T14:13:04.766Z,2.42
2019-05-06T14:15:08.038Z,2.47
2019-05-06T14:17:12.739Z,2.98
2019-05-06T14:19:16.307Z,2.37
2019-05-06T14:21:19.557Z,2.60
2019-05-06T14:23:22.830Z,2.30
2019-05-06T14:25:44.490Z,2.08
2019-05-06T14:27:49.410Z,2.10
2019-05-06T14:30:09.552Z,2.15
2019-05-06T14:32:14.817Z,3.70
2019-05-06T14:34:17.867Z,2.58
2019-05-06T14:36:22.923Z,2.02
2019-05-06T14:38:26.094Z,2.17
2019-05-06T14:40:29.868Z,1.95
2019-05-06T14:42:33.227Z,7.67
2019-05-06T14:44:36.499Z,2.50
2019-05-06T14:46:56.773Z,1.90
2019-05-06T14:49:04.066Z,2.25
2019-05-06T14:51:05.003Z,2.37
2019-05-06T14:53:08.250Z,2.33
2019-05-06T14:55:15.357Z,1.90
2019-05-06T14:57:18.865Z,2.10
2019-05-06T14:59:23.401Z,2.30
2019-05-06T15:01:26.887Z,1.98
2019-05-06T15:03:32.441Z,2.45
2019-05-06T15:05:36.268Z,2.15
2019-05-06T15:07:41.965Z,2.35
2019-05-06T15:09:57.971Z,1.98
2019-05-06T15:11:49.799Z,1.98
2019-05-06T15:13:53.191Z,1.85
2019-05-06T15:15:56.524Z,2.37
2019-05-06T15:17:59.911Z,2.30
2019-05-06T15:20:04.150Z,2.10
2019-05-06T15:22:07.412Z,2.20
2019-05-06T15:24:13.488Z,2.00
2019-05-06T15:26:15.790Z,2.08
2019-05-06T15:28:19.070Z,2.10
2019-05-06T15:30:29.715Z,1.90
2019-05-06T15:32:34.700Z,2.22
2019-05-06T15:34:39.611Z,1.70
2019-05-06T15:36:44.546Z,1.90
2019-05-06T15:38:47.810Z,1.98
2019-05-06T15:40:52.476Z,1.92
2019-05-06T15:42:55.942Z,2.00
2019-05-06T15:44:59.230Z,2.10
2019-05-06T15:47:03.269Z,1.67
2019-05-06T15:49:06.660Z,1.72
2019-05-06T15:51:12.083Z,2.00
2019-05-06T15:53:14.941Z,1.80
2019-05-06T15:55:18.246Z,1.70
2019-05-06T15:57:22.919Z,1.98
2019-05-06T15:59:26.524Z,1.82
2019-05-06T16:01:33.203Z,1.77
2019-05-06T16:03:34.801Z,1.95
2019-05-06T16:05:38.060Z,1.77
2019-05-06T16:07:43.374Z,2.27
2019-05-06T16:09:46.384Z,1.70
2019-05-06T16:11:49.729Z,1.80
2019-05-06T16:13:53.403Z,1.67
2019-05-06T16:15:56.869Z,1.32
2019-05-06T16:18:02.414Z,1.52
2019-05-06T16:20:06.091Z,1.80
2019-05-06T16:22:09.391Z,2.05
2019-05-06T16:24:17.315Z,1.60
2019-05-06T16:26:22.820Z,1.90
2019-05-06T16:28:25.628Z,1.80
2019-05-06T16:30:28.905Z,1.90
2019-05-06T16:32:33.224Z,1.75
2019-05-06T16:34:36.638Z,2.00
2019-05-06T16:36:39.922Z,1.60
2019-05-06T16:38:43.174Z,1.77
2019-05-06T16:40:46.432Z,1.70
2019-05-06T16:42:49.868Z,2.05
2019-05-06T16:44:53.161Z,1.70
2019-05-06T16:46:56.504Z,1.82
2019-05-06T16:49:02.220Z,1.60
2019-05-06T16:51:04.967Z,1.90
2019-05-06T16:53:08.264Z,1.50
2019-05-06T16:55:16.036Z,1.70
2019-05-06T16:57:23.075Z,1.52
2019-05-06T16:59:26.026Z,1.25
2019-05-06T17:01:29.368Z,1.32
2019-05-06T17:03:40.041Z,1.30
2019-05-06T17:05:44.941Z,1.35
2019-05-06T17:07:52.218Z,1.30
2019-05-06T17:09:54.850Z,1.20
2019-05-06T17:11:58.120Z,1.70
2019-05-06T17:14:03.069Z,1.35
2019-05-06T17:16:07.890Z,1.27
2019-05-06T17:18:12.233Z,1.32
2019-05-06T17:20:15.711Z,1.47
2019-05-06T17:22:18.941Z,1.52
2019-05-06T17:24:22.316Z,1.30
2019-05-06T17:26:25.571Z,1.45
2019-05-06T17:28:33.561Z,1.72
2019-05-06T17:30:51.634Z,1.20
2019-05-06T17:33:02.205Z,1.12
2019-05-06T17:35:06.507Z,7.17
2019-05-06T17:37:12.509Z,4.05
2019-05-06T17:39:15.956Z,2.30
2019-05-06T17:41:19.339Z,1.60
2019-05-06T17:43:22.702Z,1.42
2019-05-06T17:45:43.159Z,1.25
2019-05-06T17:47:48.387Z,1.50
2019-05-06T17:49:52.890Z,1.15
2019-05-06T17:51:58.012Z,1.07
2019-05-06T17:54:03.202Z,1.25
2019-05-06T17:56:06.547Z,1.40
2019-05-06T17:58:09.835Z,1.30
2019-05-06T18:00:13.512Z,1.90
2019-05-06T18:02:19.295Z,1.00
2019-05-06T18:04:22.903Z,1.22
2019-05-06T18:06:26.244Z,1.17
2019-05-06T18:08:29.493Z,1.20
2019-05-06T18:10:33.612Z,1.00
2019-05-06T18:12:37.073Z,1.50
2019-05-06T18:14:40.403Z,1.35
2019-05-06T18:16:43.755Z,1.10
2019-05-06T18:18:47.149Z,1.00
2019-05-06T18:20:50.446Z,1.50
2019-05-06T18:22:53.756Z,1.35
2019-05-06T18:24:57.150Z,1.10
2019-05-06T18:27:02.483Z,1.22
2019-05-06T18:29:06.322Z,1.47
2019-05-06T18:31:09.663Z,1.12
2019-05-06T18:33:13.338Z,1.30
2019-05-06T18:35:16.790Z,1.32
2019-05-06T18:37:20.111Z,1.25
2019-05-06T18:39:23.401Z,1.12
2019-05-06T18:41:29.205Z,1.27
2019-05-06T18:43:33.167Z,1.37
2019-05-06T18:45:36.869Z,1.30
2019-05-06T18:47:41.873Z,1.05
2019-05-06T18:49:45.127Z,1.32
2019-05-06T18:51:51.234Z,1.20
2019-05-06T18:53:53.441Z,1.57
2019-05-06T18:55:56.711Z,1.10
2019-05-06T18:58:02.101Z,1.20
2019-05-06T19:00:08.313Z,1.70
2019-05-06T19:02:13.167Z,1.45
2019-05-06T19:04:24.527Z,1.35
2019-05-06T19:06:28.008Z,1.30
2019-05-06T19:08:33.415Z,1.42
2019-05-06T19:10:36.704Z,1.65
2019-05-06T19:12:41.611Z,1.47
2019-05-06T19:14:45.132Z,1.60
2019-05-06T19:16:52.167Z,1.80
2019-05-06T19:19:12.932Z,1.60
2019-05-06T19:21:16.252Z,1.50
2019-05-06T19:23:19.504Z,1.60
2019-05-06T19:25:22.832Z,2.05
2019-05-06T19:27:26.273Z,2.00
2019-05-06T19:29:29.612Z,1.25
2019-05-06T19:31:33.100Z,1.40
2019-05-06T19:33:36.449Z,1.32
2019-05-06T19:35:39.811Z,1.65
2019-05-06T19:37:43.291Z,1.27
2019-05-06T19:39:46.758Z,1.57
2019-05-06T19:41:50.371Z,1.60
2019-05-06T19:43:53.844Z,1.50
2019-05-06T19:45:57.420Z,1.87
2019-05-06T19:48:02.961Z,1.72
2019-05-06T19:50:06.170Z,1.50
2019-05-06T19:52:09.644Z,1.65
2019-05-06T19:54:13.064Z,1.77
2019-05-06T19:56:16.351Z,1.35
2019-05-06T19:58:19.731Z,1.50
2019-05-06T20:00:24.312Z,1.37
2019-05-06T20:02:27.678Z,1.55
2019-05-06T20:04:33.213Z,1.60
2019-05-06T20:06:41.103Z,1.77
2019-05-06T20:08:47.174Z,1.92
2019-05-06T20:10:58.266Z,1.57
2019-05-06T20:13:05.387Z,1.70
2019-05-06T20:15:26.541Z,1.82
2019-05-06T20:17:29.812Z,1.92
2019-05-06T20:19:34.291Z,1.80
2019-05-06T20:21:37.636Z,2.02
2019-05-06T20:23:42.535Z,1.80
2019-05-06T20:25:46.035Z,1.67
2019-05-06T20:27:49.392Z,1.72
2019-05-06T20:29:52.737Z,2.55
2019-05-06T20:31:56.087Z,3.15
2019-05-06T20:33:59.418Z,3.87
2019-05-06T20:36:02.722Z,3.87
2019-05-06T20:38:06.061Z,4.03
2019-05-06T20:40:11.746Z,3.22
2019-05-06T20:42:14.360Z,2.95
2019-05-06T20:44:17.660Z,2.85
2019-05-06T20:46:21.959Z,2.85
2019-05-06T20:48:25.398Z,2.47
2019-05-06T20:50:28.723Z,2.77
2019-05-06T20:52:33.201Z,2.40
2019-05-06T20:54:36.656Z,2.30
2019-05-06T20:56:42.019Z,2.62
2019-05-06T20:58:45.054Z,2.50
2019-05-06T21:00:48.325Z,2.65
2019-05-06T21:02:53.455Z,2.52
2019-05-06T21:04:56.728Z,3.17
2019-05-06T21:07:02.616Z,3.67
2019-05-06T21:09:06.609Z,3.52
2019-05-06T21:11:25.052Z,2.90
2019-05-06T21:13:28.669Z,2.40
2019-05-06T21:15:20.146Z,2.12
2019-05-06T21:17:23.414Z,1.72
2019-05-06T21:19:26.670Z,1.87
2019-05-06T21:21:31.833Z,1.92
2019-05-06T21:23:35.047Z,1.92
2019-05-06T21:25:38.374Z,2.10
2019-05-06T21:27:42.380Z,1.87
2019-05-06T21:29:45.831Z,2.30
2019-05-06T21:31:49.133Z,2.50
2019-05-06T21:33:52.464Z,2.15
2019-05-06T21:35:55.739Z,1.80
2019-05-06T21:37:59.038Z,1.92
2019-05-06T21:40:02.750Z,1.70
2019-05-06T21:42:06.210Z,2.10
2019-05-06T21:44:09.480Z,2.02
2019-05-06T21:46:13.043Z,1.98
2019-05-06T21:48:16.415Z,3.08
2019-05-06T21:50:19.658Z,2.02
2019-05-06T21:52:34.350Z,1.77
2019-05-06T21:54:27.971Z,2.20
2019-05-06T21:56:32.028Z,2.10
2019-05-06T21:58:35.401Z,1.85
2019-05-06T22:00:40.315Z,1.87
2019-05-06T22:02:43.584Z,1.75
2019-05-06T22:04:46.819Z,1.77
2019-05-06T22:06:52.259Z,2.15
2019-05-06T22:08:55.103Z,1.85
2019-05-06T22:11:00.098Z,2.25
2019-05-06T22:13:03.332Z,2.60
2019-05-06T22:15:09.215Z,2.35
2019-05-06T22:17:14.106Z,2.00
2019-05-06T22:19:17.522Z,2.08
2019-05-06T22:21:24.953Z,2.17
2019-05-06T22:23:29.945Z,2.08
2019-05-06T22:25:33.208Z,2.33
2019-05-06T22:27:36.562Z,2.30
2019-05-06T22:29:39.827Z,2.42
2019-05-06T22:31:43.135Z,1.80
2019-05-06T22:33:46.472Z,2.37
2019-05-06T22:35:49.761Z,2.05
2019-05-06T22:37:53.185Z,1.95
2019-05-06T22:39:56.496Z,2.05
2019-05-06T22:41:59.808Z,1.98
2019-05-06T22:44:13.317Z,2.10
2019-05-06T22:46:08.069Z,2.00
2019-05-06T22:48:12.109Z,1.95
2019-05-06T22:50:15.570Z,2.00
2019-05-06T22:52:18.810Z,2.12
2019-05-06T22:54:24.350Z,2.20
2019-05-06T22:56:27.053Z,1.92
2019-05-06T22:58:30.336Z,1.75
2019-05-06T23:00:35.265Z,1.95
2019-05-06T23:02:43.239Z,1.90
2019-05-06T23:04:54.165Z,1.70
2019-05-06T23:06:57.404Z,2.05
2019-05-06T23:09:02.527Z,2.22
2019-05-06T23:11:05.652Z,2.00
2019-05-06T23:13:08.894Z,2.20
2019-05-06T23:15:12.230Z,2.10
2019-05-06T23:17:15.554Z,2.33
2019-05-06T23:19:18.835Z,2.15
2019-05-06T23:21:23.227Z,2.10
2019-05-06T23:23:26.647Z,2.12
2019-05-06T23:25:29.906Z,2.52
2019-05-06T23:27:33.174Z,3.02
2019-05-06T23:29:36.438Z,3.25
2019-05-06T23:31:39.711Z,2.77
2019-05-06T23:33:43.874Z,2.87
2019-05-06T23:35:47.161Z,2.50
2019-05-06T23:38:27.107Z,2.15
2019-05-06T23:41:07.070Z,2.35
2019-05-06T23:43:47.417Z,2.40
2019-05-06T23:46:27.612Z,3.17
2019-05-06T23:49:07.517Z,2.25
2019-05-06T23:51:47.468Z,2.35
2019-05-06T23:54:27.666Z,2.20
2019-05-06T23:56:42.838Z,2.45
2019-05-06T23:58:45.729Z,2.10
